createdAt,value
2023-01-06T00:01:28.643Z,9.20
2023-01-06T00:03:59.467Z,9.10
2023-01-06T00:06:29.055Z,9.20
2023-01-06T00:08:57.780Z,9.10
2023-01-06T00:11:27.040Z,9.20
2023-01-06T00:13:56.414Z,9.10
2023-01-06T00:16:27.472Z,9.80
2023-01-06T00:19:00.923Z,9.20
2023-01-06T00:21:29.810Z,9.50
2023-01-06T00:23:58.137Z,9.20
2023-01-06T00:26:26.507Z,9.70
2023-01-06T00:28:55.213Z,9.10
2023-01-06T00:31:23.889Z,9.10
2023-01-06T00:33:53.493Z,9.10
2023-01-06T00:36:25.782Z,9.20
2023-01-06T00:38:56.402Z,9.20
2023-01-06T00:41:42.378Z,9.20
2023-01-06T00:44:17.891Z,9.30
2023-01-06T00:46:46.017Z,9.30
2023-01-06T00:49:14.363Z,9.30
2023-01-06T00:51:46.380Z,9.60
2023-01-06T00:54:15.671Z,9.40
2023-01-06T00:56:49.141Z,9.40
2023-01-06T00:59:19.385Z,9.40
2023-01-06T01:01:49.516Z,10.30
2023-01-06T01:04:21.148Z,9.60
2023-01-06T01:06:53.931Z,9.30
2023-01-06T01:09:23.956Z,9.40
2023-01-06T01:12:11.934Z,9.50
2023-01-06T01:14:47.364Z,9.50
2023-01-06T01:17:19.309Z,9.50
2023-01-06T01:19:48.163Z,9.50
2023-01-06T01:22:17.965Z,9.50
2023-01-06T01:24:45.989Z,9.50
2023-01-06T01:27:14.431Z,9.60
2023-01-06T01:29:42.756Z,9.50
2023-01-06T01:32:11.037Z,9.90
2023-01-06T01:34:39.777Z,9.50
2023-01-06T01:37:07.893Z,9.90
2023-01-06T01:39:37.390Z,9.50
2023-01-06T01:42:05.415Z,9.70
2023-01-06T01:44:54.124Z,9.50
2023-01-06T01:47:27.893Z,9.40
2023-01-06T01:50:01.453Z,9.50
2023-01-06T01:52:30.417Z,9.40
2023-01-06T01:55:00.461Z,9.40
2023-01-06T01:57:33.603Z,9.40
2023-01-06T02:00:04.730Z,9.40
2023-01-06T02:02:35.530Z,9.40
2023-01-06T02:05:04.483Z,9.40
2023-01-06T02:07:32.536Z,9.50
2023-01-06T02:10:11.016Z,9.30
2023-01-06T02:12:39.639Z,9.50
2023-01-06T02:15:17.351Z,10.10
2023-01-06T02:18:19.949Z,9.50
2023-01-06T02:20:57.043Z,9.50
2023-01-06T02:24:02.477Z,9.60
2023-01-06T02:27:01.110Z,9.50
2023-01-06T02:30:01.840Z,9.50
2023-01-06T02:32:54.334Z,9.50
2023-01-06T02:35:36.372Z,9.40
2023-01-06T02:38:13.985Z,9.50
2023-01-06T02:40:54.110Z,9.80
2023-01-06T02:43:29.751Z,9.60
2023-01-06T02:46:09.234Z,9.60
2023-01-06T02:48:50.579Z,9.60
2023-01-06T02:51:23.219Z,9.60
2023-01-06T02:54:02.952Z,9.60
2023-01-06T02:56:35.834Z,9.70
2023-01-06T02:59:07.475Z,9.60
2023-01-06T03:01:40.723Z,9.60
2023-01-06T03:04:16.006Z,9.60
2023-01-06T03:06:48.421Z,9.40
2023-01-06T03:09:20.535Z,9.60
2023-01-06T03:11:52.006Z,9.60
2023-01-06T03:14:25.827Z,9.70
2023-01-06T03:16:54.766Z,9.70
2023-01-06T03:19:25.269Z,9.70
2023-01-06T03:21:53.517Z,10.20
2023-01-06T03:24:24.920Z,9.70
2023-01-06T03:26:54.460Z,9.70
2023-01-06T03:29:23.882Z,9.70
2023-01-06T03:32:01.408Z,11.20
2023-01-06T03:34:49.120Z,9.70
2023-01-06T03:37:26.585Z,9.70
2023-01-06T03:40:02.455Z,9.80
2023-01-06T03:42:54.446Z,9.80
2023-01-06T03:45:36.908Z,10.20
2023-01-06T03:48:12.260Z,9.90
2023-01-06T03:50:46.279Z,9.90
2023-01-06T03:53:24.910Z,9.80
2023-01-06T03:55:59.120Z,9.90
2023-01-06T03:58:28.950Z,9.90
2023-01-06T04:00:58.570Z,9.90
2023-01-06T04:03:27.204Z,9.80
2023-01-06T04:05:56.555Z,10.10
2023-01-06T04:08:24.643Z,11.30
2023-01-06T04:10:52.819Z,9.80
2023-01-06T04:13:19.764Z,9.80
2023-01-06T04:15:47.712Z,9.80
2023-01-06T04:18:15.589Z,9.90
2023-01-06T04:20:43.643Z,9.90
2023-01-06T04:23:13.258Z,9.90
2023-01-06T04:25:45.007Z,10.10
2023-01-06T04:28:13.102Z,10.10
2023-01-06T04:30:41.307Z,10.10
2023-01-06T04:33:09.267Z,9.90
2023-01-06T04:35:37.191Z,10.00
2023-01-06T04:38:05.151Z,11.60
2023-01-06T04:40:34.439Z,10.00
2023-01-06T04:43:06.075Z,10.00
2023-01-06T04:45:34.829Z,10.10
2023-01-06T04:48:03.143Z,10.70
2023-01-06T04:50:31.033Z,10.60
2023-01-06T04:52:58.940Z,10.70
2023-01-06T04:55:27.005Z,10.90
2023-01-06T04:57:56.371Z,10.10
2023-01-06T05:00:24.661Z,10.10
2023-01-06T05:02:52.832Z,10.20
2023-01-06T05:05:20.780Z,10.20
2023-01-06T05:07:48.793Z,10.20
2023-01-06T05:10:16.755Z,10.20
2023-01-06T05:12:44.691Z,10.30
2023-01-06T05:15:14.095Z,10.20
2023-01-06T05:17:42.177Z,10.40
2023-01-06T05:20:11.240Z,10.50
2023-01-06T05:22:39.143Z,10.20
2023-01-06T05:25:08.160Z,10.20
2023-01-06T05:27:36.096Z,10.20
2023-01-06T05:30:04.340Z,10.20
2023-01-06T05:32:33.693Z,10.10
2023-01-06T05:35:02.757Z,10.10
2023-01-06T05:37:30.640Z,11.40
2023-01-06T05:39:58.653Z,10.10
2023-01-06T05:42:26.708Z,10.10
2023-01-06T05:44:54.563Z,10.10
2023-01-06T05:47:22.414Z,10.70
2023-01-06T05:49:51.668Z,10.50
2023-01-06T05:52:19.629Z,10.10
2023-01-06T05:54:47.710Z,10.20
2023-01-06T05:57:16.029Z,10.20
2023-01-06T05:59:44.309Z,10.10
2023-01-06T06:02:12.842Z,10.20
2023-01-06T06:04:41.352Z,11.20
2023-01-06T06:07:11.184Z,10.80
2023-01-06T06:09:39.317Z,10.10
2023-01-06T06:12:07.964Z,10.10
2023-01-06T06:14:36.274Z,9.00
2023-01-06T06:17:04.401Z,10.10
2023-01-06T06:19:32.751Z,11.30
2023-01-06T06:22:01.336Z,10.00
2023-01-06T06:24:32.856Z,10.00
2023-01-06T06:27:01.410Z,10.00
2023-01-06T06:29:29.544Z,10.00
2023-01-06T06:31:57.909Z,10.10
2023-01-06T06:34:26.624Z,10.00
2023-01-06T06:36:55.623Z,10.00
2023-01-06T06:39:25.777Z,10.50
2023-01-06T06:41:55.859Z,10.60
2023-01-06T06:44:24.096Z,10.70
2023-01-06T06:46:52.597Z,10.50
2023-01-06T06:49:21.161Z,9.80
2023-01-06T06:51:49.749Z,9.90
2023-01-06T06:54:18.048Z,9.50
2023-01-06T06:56:46.369Z,10.40
2023-01-06T06:59:16.260Z,10.00
2023-01-06T07:01:44.751Z,10.90
2023-01-06T07:04:13.337Z,10.60
2023-01-06T07:06:42.160Z,10.10
2023-01-06T07:09:15.338Z,10.10
2023-01-06T07:11:44.206Z,11.10
2023-01-06T07:14:12.210Z,9.70
2023-01-06T07:16:43.025Z,10.20
2023-01-06T07:19:11.701Z,10.20
2023-01-06T07:21:43.184Z,10.60
2023-01-06T07:24:12.017Z,10.20
2023-01-06T07:26:41.056Z,10.30
2023-01-06T07:29:09.583Z,10.80
2023-01-06T07:31:37.743Z,10.30
2023-01-06T07:34:07.769Z,10.70
2023-01-06T07:36:36.428Z,11.80
2023-01-06T07:39:04.666Z,10.60
2023-01-06T07:41:33.801Z,10.90
2023-01-06T07:44:02.223Z,10.40
2023-01-06T07:46:30.906Z,10.50
2023-01-06T07:48:59.041Z,11.10
2023-01-06T07:51:29.229Z,10.50
2023-01-06T07:53:57.778Z,11.10
2023-01-06T07:56:29.870Z,10.60
2023-01-06T07:58:58.529Z,10.40
2023-01-06T08:01:27.669Z,12.30
2023-01-06T08:03:56.183Z,10.80
2023-01-06T08:06:24.770Z,10.80
2023-01-06T08:08:56.959Z,11.40
2023-01-06T08:11:25.258Z,11.30
2023-01-06T08:13:53.725Z,11.00
2023-01-06T08:16:22.361Z,12.30
2023-01-06T08:18:50.483Z,11.90
2023-01-06T08:21:21.761Z,11.30
2023-01-06T08:23:50.700Z,11.50
2023-01-06T08:26:20.839Z,12.50
2023-01-06T08:28:49.862Z,11.10
2023-01-06T08:31:38.292Z,11.10
2023-01-06T08:34:14.039Z,11.40
2023-01-06T08:37:52.279Z,11.40
2023-01-06T08:40:20.435Z,11.00
2023-01-06T08:42:50.865Z,12.90
2023-01-06T08:45:19.311Z,11.60
2023-01-06T08:48:11.679Z,11.60
2023-01-06T08:50:40.280Z,11.70
2023-01-06T08:53:08.921Z,12.00
2023-01-06T08:55:41.943Z,12.30
2023-01-06T08:58:16.250Z,11.90
2023-01-06T09:03:33.984Z,11.60
2023-01-06T09:06:02.702Z,11.50
2023-01-06T09:08:32.476Z,13.30
2023-01-06T09:11:06.378Z,11.80
2023-01-06T09:13:36.813Z,12.10
2023-01-06T09:16:07.060Z,12.30
2023-01-06T09:18:35.608Z,11.80
2023-01-06T09:21:04.385Z,11.90
2023-01-06T09:23:33.266Z,12.10
2023-01-06T09:26:05.050Z,12.50
2023-01-06T09:28:36.500Z,12.50
2023-01-06T09:31:06.499Z,12.90
2023-01-06T09:33:37.106Z,12.50
2023-01-06T09:36:07.879Z,12.40
2023-01-06T09:38:36.105Z,12.30
2023-01-06T09:41:19.201Z,12.30
2023-01-06T09:43:53.238Z,12.50
2023-01-06T09:46:27.588Z,12.30
2023-01-06T09:49:03.642Z,12.00
2023-01-06T09:51:33.199Z,11.90
2023-01-06T09:54:11.056Z,12.80
2023-01-06T09:56:42.475Z,11.90
2023-01-06T09:59:20.372Z,11.90
2023-01-06T10:01:56.422Z,12.00
2023-01-06T10:04:29.414Z,12.30
2023-01-06T10:07:15.011Z,12.80
2023-01-06T10:09:53.841Z,12.70
2023-01-06T10:12:36.601Z,13.00
2023-01-06T10:15:19.784Z,13.20
2023-01-06T10:18:09.869Z,13.10
2023-01-06T10:20:52.501Z,13.20
2023-01-06T10:23:42.180Z,12.90
2023-01-06T10:26:18.426Z,13.00
2023-01-06T10:28:54.074Z,13.00
2023-01-06T10:31:24.890Z,12.80
2023-01-06T10:34:03.044Z,13.70
2023-01-06T10:36:34.561Z,13.30
2023-01-06T10:39:23.724Z,13.20
2023-01-06T10:42:24.632Z,12.80
2023-01-06T10:48:03.682Z,13.70
2023-01-06T10:50:42.472Z,13.60
2023-01-06T10:56:58.576Z,12.50
2023-01-06T11:00:26.890Z,13.60
2023-01-06T11:03:31.566Z,13.30
2023-01-06T11:06:05.284Z,13.20
2023-01-06T11:08:34.652Z,13.10
2023-01-06T11:11:16.510Z,13.00
2023-01-06T11:13:58.140Z,12.90
2023-01-06T11:16:28.795Z,12.70
2023-01-06T11:19:00.127Z,12.90
2023-01-06T11:21:40.488Z,12.90
2023-01-06T11:24:20.144Z,13.00
2023-01-06T11:26:54.088Z,12.60
2023-01-06T11:29:31.030Z,12.90
2023-01-06T11:32:03.931Z,12.40
2023-01-06T11:34:32.907Z,12.90
2023-01-06T11:37:02.733Z,12.30
2023-01-06T11:39:34.508Z,12.20
2023-01-06T11:42:14.713Z,12.30
2023-01-06T11:44:43.885Z,12.70
2023-01-06T11:47:16.245Z,12.10
2023-01-06T11:49:49.385Z,11.90
2023-01-06T11:52:31.258Z,12.10
2023-01-06T11:55:02.751Z,12.10
2023-01-06T11:57:41.289Z,11.80
2023-01-06T12:00:41.952Z,12.00
2023-01-06T12:03:22.055Z,12.00
2023-01-06T12:05:57.833Z,12.00
2023-01-06T12:08:32.896Z,11.90
2023-01-06T12:11:05.833Z,11.90
2023-01-06T12:13:44.202Z,11.90
2023-01-06T12:16:19.323Z,12.00
2023-01-06T12:18:47.828Z,11.90
2023-01-06T12:21:21.065Z,12.00
2023-01-06T12:23:50.596Z,12.00
2023-01-06T12:26:23.941Z,12.00
2023-01-06T12:28:56.025Z,12.20
2023-01-06T12:31:28.059Z,12.00
2023-01-06T12:34:01.345Z,12.00
2023-01-06T12:36:36.908Z,12.10
2023-01-06T12:39:12.149Z,12.10
2023-01-06T12:41:45.530Z,12.10
2023-01-06T12:44:20.898Z,12.10
2023-01-06T12:46:56.635Z,12.20
2023-01-06T12:49:32.815Z,12.20
2023-01-06T12:52:05.696Z,12.20
2023-01-06T12:54:36.432Z,12.20
2023-01-06T12:57:23.126Z,12.20
2023-01-06T13:00:08.019Z,12.20
2023-01-06T13:03:03.342Z,12.20
2023-01-06T13:05:47.340Z,12.10
2023-01-06T13:08:35.165Z,12.10
2023-01-06T13:11:14.840Z,12.20
2023-01-06T13:13:55.560Z,12.10
2023-01-06T13:16:31.310Z,12.10
2023-01-06T13:19:17.019Z,12.10
2023-01-06T13:21:46.203Z,12.10
2023-01-06T13:24:38.352Z,12.20
2023-01-06T13:27:38.607Z,12.20
2023-01-06T13:30:30.910Z,12.10
2023-01-06T13:33:33.690Z,12.10
2023-01-06T13:36:31.860Z,12.10
2023-01-06T13:39:02.377Z,12.00
2023-01-06T13:41:34.806Z,12.00
2023-01-06T13:44:06.719Z,12.00
2023-01-06T13:46:36.164Z,11.90
2023-01-06T13:49:06.380Z,11.90
2023-01-06T13:51:37.183Z,11.90
2023-01-06T13:54:05.395Z,11.80
2023-01-06T13:56:34.484Z,11.80
2023-01-06T13:59:22.313Z,11.80
2023-01-06T14:01:51.095Z,11.80
2023-01-06T14:04:52.172Z,11.70
2023-01-06T14:07:33.493Z,11.70
2023-01-06T14:10:02.253Z,11.70
2023-01-06T14:12:31.155Z,11.70
2023-01-06T14:15:02.623Z,11.70
2023-01-06T14:17:40.044Z,11.70
2023-01-06T14:20:22.974Z,11.70
2023-01-06T14:23:06.605Z,11.70
2023-01-06T14:25:40.529Z,11.70
2023-01-06T14:28:30.593Z,11.70
2023-01-06T14:31:46.532Z,11.70
2023-01-06T14:34:18.902Z,11.70
2023-01-06T14:36:50.651Z,11.60
2023-01-06T14:39:26.329Z,11.70
2023-01-06T14:42:00.813Z,11.70
2023-01-06T14:44:36.971Z,11.70
2023-01-06T14:47:09.237Z,11.70
2023-01-06T14:49:48.040Z,11.60
2023-01-06T14:52:19.209Z,11.60
2023-01-06T14:54:50.388Z,11.60
2023-01-06T14:57:26.943Z,11.50
2023-01-06T15:00:13.732Z,11.50
2023-01-06T15:02:46.145Z,11.60
2023-01-06T15:05:22.745Z,11.60
2023-01-06T15:08:02.369Z,11.50
2023-01-06T15:10:35.238Z,11.50
2023-01-06T15:13:03.776Z,11.50
2023-01-06T15:15:33.823Z,11.40
2023-01-06T15:18:03.336Z,11.40
2023-01-06T15:20:34.892Z,11.40
2023-01-06T15:23:03.770Z,11.40
2023-01-06T15:25:34.361Z,11.40
2023-01-06T15:28:02.329Z,11.40
2023-01-06T15:30:34.839Z,11.40
2023-01-06T15:33:04.886Z,11.50
2023-01-06T15:35:34.814Z,11.40
2023-01-06T15:38:06.210Z,11.40
2023-01-06T15:40:34.468Z,11.40
2023-01-06T15:43:02.646Z,11.40
2023-01-06T15:45:33.394Z,11.40
2023-01-06T15:48:08.632Z,11.40
2023-01-06T15:50:38.404Z,11.30
2023-01-06T15:53:19.106Z,11.30
2023-01-06T15:55:50.937Z,11.30
2023-01-06T15:58:23.693Z,11.30
2023-01-06T16:00:56.466Z,11.30
2023-01-06T16:03:27.292Z,11.20
2023-01-06T16:06:11.695Z,11.20
2023-01-06T16:08:40.806Z,11.30
2023-01-06T16:11:42.876Z,11.40
2023-01-06T16:14:26.713Z,11.30
2023-01-06T16:17:01.490Z,11.30
2023-01-06T16:19:29.670Z,11.30
2023-01-06T16:22:00.279Z,11.30
2023-01-06T16:24:30.302Z,11.30
2023-01-06T16:27:02.294Z,11.30
2023-01-06T16:29:33.531Z,11.30
2023-01-06T16:32:21.809Z,11.30
2023-01-06T16:34:51.414Z,11.30
2023-01-06T16:37:20.763Z,11.30
2023-01-06T16:39:48.865Z,11.30
2023-01-06T16:42:40.977Z,11.30
2023-01-06T16:45:17.377Z,11.30
2023-01-06T16:47:46.096Z,11.30
2023-01-06T16:50:26.105Z,11.30
2023-01-06T16:53:04.617Z,11.30
2023-01-06T16:55:32.802Z,11.30
2023-01-06T16:58:03.618Z,11.30
2023-01-06T17:00:36.324Z,11.30
2023-01-06T17:03:14.148Z,11.20
2023-01-06T17:05:42.227Z,11.20
2023-01-06T17:08:15.749Z,11.20
2023-01-06T17:10:43.926Z,11.20
2023-01-06T17:13:33.644Z,11.20
2023-01-06T17:16:04.934Z,11.30
2023-01-06T17:18:34.680Z,11.20
2023-01-06T17:21:11.496Z,11.20
2023-01-06T17:23:44.542Z,11.20
2023-01-06T17:26:16.177Z,11.20
2023-01-06T17:28:44.541Z,11.20
2023-01-06T17:31:16.473Z,11.30
2023-01-06T17:33:45.852Z,11.10
2023-01-06T17:36:24.052Z,11.10
2023-01-06T17:38:53.659Z,11.20
2023-01-06T17:41:22.722Z,11.10
2023-01-06T17:43:50.619Z,11.10
2023-01-06T17:46:24.481Z,11.10
2023-01-06T17:49:02.017Z,11.10
2023-01-06T17:51:31.229Z,11.10
2023-01-06T17:54:18.021Z,11.10
2023-01-06T17:56:46.155Z,11.10
2023-01-06T17:59:18.230Z,11.10
2023-01-06T18:01:46.278Z,11.10
2023-01-06T18:04:18.516Z,11.10
2023-01-06T18:06:55.757Z,11.10
2023-01-06T18:09:25.616Z,11.10
2023-01-06T18:11:58.815Z,11.10
2023-01-06T18:14:32.956Z,11.10
2023-01-06T18:17:09.332Z,11.10
2023-01-06T18:19:38.436Z,11.10
2023-01-06T18:22:16.147Z,11.10
2023-01-06T18:24:46.991Z,11.10
2023-01-06T18:27:20.600Z,11.10
2023-01-06T18:29:49.282Z,11.10
2023-01-06T18:32:29.932Z,11.10
2023-01-06T18:34:59.059Z,11.10
2023-01-06T18:37:29.740Z,11.10
2023-01-06T18:40:02.515Z,11.10
2023-01-06T18:42:32.941Z,11.00
2023-01-06T18:45:20.220Z,11.00
2023-01-06T18:47:56.371Z,11.10
2023-01-06T18:50:27.507Z,11.10
2023-01-06T18:52:58.822Z,11.10
2023-01-06T18:55:34.344Z,11.00
2023-01-06T18:58:08.682Z,11.00
2023-01-06T19:00:42.125Z,11.00
2023-01-06T19:03:36.740Z,11.00
2023-01-06T19:06:32.502Z,11.00
2023-01-06T19:09:03.534Z,10.90
2023-01-06T19:11:34.590Z,11.00
2023-01-06T19:14:07.170Z,11.00
2023-01-06T19:16:37.612Z,11.00
2023-01-06T19:19:25.563Z,11.00
2023-01-06T19:21:58.064Z,11.00
2023-01-06T19:24:47.696Z,11.00
2023-01-06T19:27:45.788Z,11.00
2023-01-06T19:30:38.884Z,11.00
2023-01-06T19:33:23.116Z,10.90
2023-01-06T19:35:52.083Z,10.80
2023-01-06T19:38:28.236Z,10.90
2023-01-06T19:40:58.672Z,10.90
2023-01-06T19:43:31.430Z,10.90
2023-01-06T19:46:02.675Z,10.80
2023-01-06T19:48:39.041Z,10.80
2023-01-06T19:51:23.849Z,10.80
2023-01-06T19:53:54.091Z,10.90
2023-01-06T19:56:24.997Z,10.70
2023-01-06T19:58:58.622Z,10.70
2023-01-06T20:01:27.455Z,10.70
2023-01-06T20:03:57.233Z,10.60
2023-01-06T20:06:27.100Z,10.60
2023-01-06T20:08:56.656Z,10.60
2023-01-06T20:11:29.094Z,10.60
2023-01-06T20:13:58.565Z,10.60
2023-01-06T20:16:29.148Z,10.60
2023-01-06T20:18:57.435Z,10.60
2023-01-06T20:21:25.480Z,10.60
2023-01-06T20:23:53.654Z,10.60
2023-01-06T20:26:21.673Z,10.60
2023-01-06T20:28:50.297Z,10.60
2023-01-06T20:31:19.730Z,10.60
2023-01-06T20:33:47.734Z,10.70
2023-01-06T20:36:17.345Z,10.70
2023-01-06T20:38:45.925Z,10.70
2023-01-06T20:41:14.179Z,10.70
2023-01-06T20:43:42.368Z,10.70
2023-01-06T20:46:10.408Z,10.70
2023-01-06T20:48:40.093Z,10.90
2023-01-06T20:51:08.994Z,10.70
2023-01-06T20:53:37.467Z,10.80
2023-01-06T20:56:06.213Z,10.80
2023-01-06T20:58:34.248Z,10.80
2023-01-06T21:01:04.541Z,10.90
2023-01-06T21:03:32.870Z,10.80
2023-01-06T21:06:02.321Z,10.80
2023-01-06T21:08:30.371Z,10.90
2023-01-06T21:10:58.489Z,10.90
2023-01-06T21:13:29.911Z,10.90
2023-01-06T21:15:58.042Z,10.90
2023-01-06T21:18:26.097Z,10.90
2023-01-06T21:20:54.418Z,10.90
2023-01-06T21:23:24.019Z,10.90
2023-01-06T21:25:52.313Z,10.90
2023-01-06T21:28:20.674Z,10.90
2023-01-06T21:30:48.930Z,10.80
2023-01-06T21:33:17.184Z,10.80
2023-01-06T21:35:46.021Z,10.70
2023-01-06T21:38:14.009Z,10.70
2023-01-06T21:40:43.897Z,10.70
2023-01-06T21:43:11.324Z,10.70
2023-01-06T21:45:40.893Z,10.70
2023-01-06T21:48:09.865Z,10.70
2023-01-06T21:50:40.962Z,10.60
2023-01-06T21:53:09.957Z,10.60
2023-01-06T21:55:38.587Z,10.40
2023-01-06T21:58:08.010Z,10.50
2023-01-06T22:00:35.961Z,10.50
2023-01-06T22:03:04.112Z,10.50
2023-01-06T22:05:32.308Z,10.50
2023-01-06T22:08:01.327Z,10.50
2023-01-06T22:10:29.375Z,10.40
2023-01-06T22:12:59.486Z,10.50
2023-01-06T22:15:29.630Z,10.40
2023-01-06T22:17:59.935Z,10.40
2023-01-06T22:20:28.857Z,10.40
2023-01-06T22:22:56.832Z,10.40
2023-01-06T22:25:25.173Z,10.40
2023-01-06T22:27:53.181Z,10.40
2023-01-06T22:30:21.238Z,10.40
2023-01-06T22:32:50.669Z,10.30
2023-01-06T22:35:20.091Z,10.30
2023-01-06T22:37:48.051Z,10.50
2023-01-06T22:40:16.490Z,10.40
2023-01-06T22:42:45.285Z,10.40
2023-01-06T22:45:14.472Z,10.40
2023-01-06T22:47:42.488Z,10.40
2023-01-06T22:50:12.231Z,10.40
2023-01-06T22:52:40.284Z,10.40
2023-01-06T22:55:09.586Z,10.40
2023-01-06T22:57:37.577Z,10.30
2023-01-06T23:00:11.357Z,10.30
2023-01-06T23:02:39.750Z,10.30
2023-01-06T23:05:08.558Z,10.30
2023-01-06T23:07:40.237Z,10.30
2023-01-06T23:10:10.845Z,10.30
2023-01-06T23:12:40.415Z,10.30
2023-01-06T23:15:09.789Z,10.30
2023-01-06T23:17:39.773Z,10.30
2023-01-06T23:20:08.377Z,10.30
2023-01-06T23:22:37.301Z,10.30
2023-01-06T23:25:07.907Z,10.30
2023-01-06T23:27:35.893Z,10.30
2023-01-06T23:30:03.960Z,10.30
2023-01-06T23:32:31.982Z,10.30
2023-01-06T23:34:59.957Z,10.40
2023-01-06T23:37:28.127Z,10.30
2023-01-06T23:39:57.124Z,10.30
2023-01-06T23:42:27.369Z,10.30
2023-01-06T23:44:55.373Z,10.40
2023-01-06T23:47:23.375Z,10.30
2023-01-06T23:49:51.419Z,10.30
2023-01-06T23:52:19.540Z,10.40
2023-01-06T23:54:47.686Z,10.30
2023-01-06T23:57:16.802Z,10.30
2023-01-06T23:59:49.127Z,10.20
